sensor_id;sensor_type;location;lat;lon;timestamp;temperature;humidity
20041;DHT22;10181;48.072;9.884;2022-11-06T00:01:08;1.40;99.90
20041;DHT22;10181;48.072;9.884;2022-11-06T00:03:34;1.40;99.90
20041;DHT22;10181;48.072;9.884;2022-11-06T00:06:11;1.40;99.90
20041;DHT22;10181;48.072;9.884;2022-11-06T00:08:58;1.30;99.90
20041;DHT22;10181;48.072;9.884;2022-11-06T00:11:24;1.30;99.90
20041;DHT22;10181;48.072;9.884;2022-11-06T00:13:49;1.30;99.90
20041;DHT22;10181;48.072;9.884;2022-11-06T00:16:17;1.20;99.90
20041;DHT22;10181;48.072;9.884;2022-11-06T00:18:43;1.20;99.90
20041;DHT22;10181;48.072;9.884;2022-11-06T00:21:15;1.20;99.90
20041;DHT22;10181;48.072;9.884;2022-11-06T00:23:41;1.10;99.90
20041;DHT22;10181;48.072;9.884;2022-11-06T00:26:08;1.10;99.90
20041;DHT22;10181;48.072;9.884;2022-11-06T00:28:35;1.10;99.90
20041;DHT22;10181;48.072;9.884;2022-11-06T00:31:06;1.20;99.90
20041;DHT22;10181;48.072;9.884;2022-11-06T00:33:32;1.20;99.90
20041;DHT22;10181;48.072;9.884;2022-11-06T00:36:01;1.10;99.90
20041;DHT22;10181;48.072;9.884;2022-11-06T00:38:27;1.10;99.90
20041;DHT22;10181;48.072;9.884;2022-11-06T00:40:53;1.10;99.90
20041;DHT22;10181;48.072;9.884;2022-11-06T00:43:19;1.10;99.90
20041;DHT22;10181;48.072;9.884;2022-11-06T00:45:44;1.10;99.90
20041;DHT22;10181;48.072;9.884;2022-11-06T00:48:10;1.00;99.90
20041;DHT22;10181;48.072;9.884;2022-11-06T00:50:36;1.00;99.90
20041;DHT22;10181;48.072;9.884;2022-11-06T00:53:01;1.00;99.90
20041;DHT22;10181;48.072;9.884;2022-11-06T00:55:27;1.00;99.90
20041;DHT22;10181;48.072;9.884;2022-11-06T00:57:53;1.00;99.90
20041;DHT22;10181;48.072;9.884;2022-11-06T01:00:18;1.10;99.90
20041;DHT22;10181;48.072;9.884;2022-11-06T01:02:45;1.10;99.90
20041;DHT22;10181;48.072;9.884;2022-11-06T01:05:12;1.10;99.90
20041;DHT22;10181;48.072;9.884;2022-11-06T01:07:38;1.10;99.90
20041;DHT22;10181;48.072;9.884;2022-11-06T01:10:04;1.10;99.90
20041;DHT22;10181;48.072;9.884;2022-11-06T01:12:31;1.10;99.90
20041;DHT22;10181;48.072;9.884;2022-11-06T01:14:57;1.00;99.90
20041;DHT22;10181;48.072;9.884;2022-11-06T01:17:23;1.00;99.90
20041;DHT22;10181;48.072;9.884;2022-11-06T01:19:48;1.00;99.90
20041;DHT22;10181;48.072;9.884;2022-11-06T01:22:14;1.00;99.90
20041;DHT22;10181;48.072;9.884;2022-11-06T01:24:40;1.00;99.90
20041;DHT22;10181;48.072;9.884;2022-11-06T01:27:05;0.90;99.90
20041;DHT22;10181;48.072;9.884;2022-11-06T01:29:31;0.90;99.90
20041;DHT22;10181;48.072;9.884;2022-11-06T01:31:57;1.00;99.90
20041;DHT22;10181;48.072;9.884;2022-11-06T01:34:23;1.00;99.90
20041;DHT22;10181;48.072;9.884;2022-11-06T01:36:49;1.10;99.90
20041;DHT22;10181;48.072;9.884;2022-11-06T01:39:15;1.10;99.90
20041;DHT22;10181;48.072;9.884;2022-11-06T01:41:46;1.20;99.90
20041;DHT22;10181;48.072;9.884;2022-11-06T01:47:20;1.20;99.90
20041;DHT22;10181;48.072;9.884;2022-11-06T01:49:47;1.30;99.90
20041;DHT22;10181;48.072;9.884;2022-11-06T01:52:14;1.30;99.90
20041;DHT22;10181;48.072;9.884;2022-11-06T01:54:42;1.30;99.90
20041;DHT22;10181;48.072;9.884;2022-11-06T01:57:10;1.20;99.90
20041;DHT22;10181;48.072;9.884;2022-11-06T01:59:39;1.20;99.90
20041;DHT22;10181;48.072;9.884;2022-11-06T02:02:05;1.20;99.90
20041;DHT22;10181;48.072;9.884;2022-11-06T02:04:35;1.10;99.90
20041;DHT22;10181;48.072;9.884;2022-11-06T02:07:02;1.00;99.90
20041;DHT22;10181;48.072;9.884;2022-11-06T02:09:29;1.00;99.90
20041;DHT22;10181;48.072;9.884;2022-11-06T02:20:16;1.00;99.90
20041;DHT22;10181;48.072;9.884;2022-11-06T02:25:51;1.10;99.90
20041;DHT22;10181;48.072;9.884;2022-11-06T02:28:23;1.10;99.90
20041;DHT22;10181;48.072;9.884;2022-11-06T02:30:52;1.20;99.90
20041;DHT22;10181;48.072;9.884;2022-11-06T02:33:33;1.20;99.90
20041;DHT22;10181;48.072;9.884;2022-11-06T02:36:06;1.20;99.90
20041;DHT22;10181;48.072;9.884;2022-11-06T02:38:45;1.20;99.90
20041;DHT22;10181;48.072;9.884;2022-11-06T02:41:21;1.20;99.90
20041;DHT22;10181;48.072;9.884;2022-11-06T02:43:54;1.20;99.90
20041;DHT22;10181;48.072;9.884;2022-11-06T02:46:35;1.20;99.90
20041;DHT22;10181;48.072;9.884;2022-11-06T02:49:11;1.20;99.90
20041;DHT22;10181;48.072;9.884;2022-11-06T02:51:42;1.20;99.90
20041;DHT22;10181;48.072;9.884;2022-11-06T02:54:11;1.20;99.90
20041;DHT22;10181;48.072;9.884;2022-11-06T02:56:40;1.20;99.90
20041;DHT22;10181;48.072;9.884;2022-11-06T02:59:21;1.20;99.90
20041;DHT22;10181;48.072;9.884;2022-11-06T03:04:24;1.20;99.90
20041;DHT22;10181;48.072;9.884;2022-11-06T03:07:10;1.20;99.90
20041;DHT22;10181;48.072;9.884;2022-11-06T03:09:37;1.10;99.90
20041;DHT22;10181;48.072;9.884;2022-11-06T03:12:22;1.00;99.90
20041;DHT22;10181;48.072;9.884;2022-11-06T03:22:49;0.80;99.90
20041;DHT22;10181;48.072;9.884;2022-11-06T03:25:27;0.80;99.90
20041;DHT22;10181;48.072;9.884;2022-11-06T03:30:55;0.80;99.90
20041;DHT22;10181;48.072;9.884;2022-11-06T03:33:33;0.80;99.90
20041;DHT22;10181;48.072;9.884;2022-11-06T03:36:22;0.80;99.90
20041;DHT22;10181;48.072;9.884;2022-11-06T03:38:52;0.80;99.90
20041;DHT22;10181;48.072;9.884;2022-11-06T03:41:33;0.90;99.90
20041;DHT22;10181;48.072;9.884;2022-11-06T03:44:04;0.90;99.90
20041;DHT22;10181;48.072;9.884;2022-11-06T03:46:32;1.00;99.90
20041;DHT22;10181;48.072;9.884;2022-11-06T03:49:04;1.00;99.90
20041;DHT22;10181;48.072;9.884;2022-11-06T03:51:57;0.90;99.90
20041;DHT22;10181;48.072;9.884;2022-11-06T03:54:26;0.90;99.90
20041;DHT22;10181;48.072;9.884;2022-11-06T03:57:21;0.90;99.90
20041;DHT22;10181;48.072;9.884;2022-11-06T03:59:54;0.80;99.90
20041;DHT22;10181;48.072;9.884;2022-11-06T04:02:25;0.80;99.90
20041;DHT22;10181;48.072;9.884;2022-11-06T04:04:57;0.70;99.90
20041;DHT22;10181;48.072;9.884;2022-11-06T04:07:32;0.60;99.90
20041;DHT22;10181;48.072;9.884;2022-11-06T04:10:02;0.50;99.90
20041;DHT22;10181;48.072;9.884;2022-11-06T04:12:48;0.40;99.90
20041;DHT22;10181;48.072;9.884;2022-11-06T04:15:37;0.30;99.90
20041;DHT22;10181;48.072;9.884;2022-11-06T04:18:11;0.30;99.90
20041;DHT22;10181;48.072;9.884;2022-11-06T04:21:27;0.20;99.90
20041;DHT22;10181;48.072;9.884;2022-11-06T04:24:11;0.20;99.90
20041;DHT22;10181;48.072;9.884;2022-11-06T04:30:11;0.10;99.90
20041;DHT22;10181;48.072;9.884;2022-11-06T04:32:50;0.10;99.90
20041;DHT22;10181;48.072;9.884;2022-11-06T04:35:52;0.10;99.90
20041;DHT22;10181;48.072;9.884;2022-11-06T04:44:06;0.10;99.90
20041;DHT22;10181;48.072;9.884;2022-11-06T04:46:36;0.00;99.90
20041;DHT22;10181;48.072;9.884;2022-11-06T04:49:04;0.00;99.90
20041;DHT22;10181;48.072;9.884;2022-11-06T04:51:34;0.00;99.90
20041;DHT22;10181;48.072;9.884;2022-11-06T04:54:01;-0.10;99.90
20041;DHT22;10181;48.072;9.884;2022-11-06T04:56:33;-0.10;99.90
20041;DHT22;10181;48.072;9.884;2022-11-06T04:58:59;-0.20;99.90
20041;DHT22;10181;48.072;9.884;2022-11-06T05:01:24;-0.20;99.90
20041;DHT22;10181;48.072;9.884;2022-11-06T05:03:50;-0.20;99.90
20041;DHT22;10181;48.072;9.884;2022-11-06T05:06:16;-0.20;99.90
20041;DHT22;10181;48.072;9.884;2022-11-06T05:08:42;-0.10;99.90
20041;DHT22;10181;48.072;9.884;2022-11-06T05:11:08;-0.10;99.90
20041;DHT22;10181;48.072;9.884;2022-11-06T05:13:34;-0.10;99.90
20041;DHT22;10181;48.072;9.884;2022-11-06T05:16:00;0.00;99.90
20041;DHT22;10181;48.072;9.884;2022-11-06T05:18:26;0.00;99.90
20041;DHT22;10181;48.072;9.884;2022-11-06T05:20:52;0.00;99.90
20041;DHT22;10181;48.072;9.884;2022-11-06T05:23:36;-0.10;99.90
20041;DHT22;10181;48.072;9.884;2022-11-06T05:26:03;-0.20;99.90
20041;DHT22;10181;48.072;9.884;2022-11-06T05:28:29;-0.20;99.90
20041;DHT22;10181;48.072;9.884;2022-11-06T05:30:55;-0.10;99.90
20041;DHT22;10181;48.072;9.884;2022-11-06T05:33:20;-0.10;99.90
20041;DHT22;10181;48.072;9.884;2022-11-06T05:35:46;-0.10;99.90
20041;DHT22;10181;48.072;9.884;2022-11-06T05:38:11;-0.10;99.90
20041;DHT22;10181;48.072;9.884;2022-11-06T05:40:37;-0.20;99.90
20041;DHT22;10181;48.072;9.884;2022-11-06T05:43:03;-0.20;99.90
20041;DHT22;10181;48.072;9.884;2022-11-06T05:45:28;-0.10;99.90
20041;DHT22;10181;48.072;9.884;2022-11-06T05:47:54;-0.10;99.90
20041;DHT22;10181;48.072;9.884;2022-11-06T05:50:20;-0.10;99.90
20041;DHT22;10181;48.072;9.884;2022-11-06T05:52:45;-0.10;99.90
20041;DHT22;10181;48.072;9.884;2022-11-06T05:55:11;-0.10;99.90
20041;DHT22;10181;48.072;9.884;2022-11-06T05:57:37;-0.10;99.90
20041;DHT22;10181;48.072;9.884;2022-11-06T06:00:04;-0.10;99.90
20041;DHT22;10181;48.072;9.884;2022-11-06T06:02:30;-0.10;99.90
20041;DHT22;10181;48.072;9.884;2022-11-06T06:04:56;0.00;99.90
20041;DHT22;10181;48.072;9.884;2022-11-06T06:07:21;-0.10;99.90
20041;DHT22;10181;48.072;9.884;2022-11-06T06:09:47;0.00;99.90
20041;DHT22;10181;48.072;9.884;2022-11-06T06:12:12;0.00;99.90
20041;DHT22;10181;48.072;9.884;2022-11-06T06:14:38;0.00;99.90
20041;DHT22;10181;48.072;9.884;2022-11-06T06:17:04;0.00;99.90
20041;DHT22;10181;48.072;9.884;2022-11-06T06:19:30;0.00;99.90
20041;DHT22;10181;48.072;9.884;2022-11-06T06:21:55;-0.10;99.90
20041;DHT22;10181;48.072;9.884;2022-11-06T06:24:21;-0.10;99.90
20041;DHT22;10181;48.072;9.884;2022-11-06T06:26:47;-0.10;99.90
20041;DHT22;10181;48.072;9.884;2022-11-06T06:29:12;-0.10;99.90
20041;DHT22;10181;48.072;9.884;2022-11-06T06:31:38;-0.10;99.90
20041;DHT22;10181;48.072;9.884;2022-11-06T06:34:04;-0.10;99.90
20041;DHT22;10181;48.072;9.884;2022-11-06T06:36:29;-0.10;99.90
20041;DHT22;10181;48.072;9.884;2022-11-06T06:38:55;0.00;99.90
20041;DHT22;10181;48.072;9.884;2022-11-06T06:41:20;0.10;99.90
20041;DHT22;10181;48.072;9.884;2022-11-06T06:43:47;0.10;99.90
20041;DHT22;10181;48.072;9.884;2022-11-06T06:46:13;0.10;99.90
20041;DHT22;10181;48.072;9.884;2022-11-06T06:48:39;0.10;99.90
20041;DHT22;10181;48.072;9.884;2022-11-06T06:51:05;0.00;99.90
20041;DHT22;10181;48.072;9.884;2022-11-06T06:53:32;0.10;99.90
20041;DHT22;10181;48.072;9.884;2022-11-06T06:55:59;0.10;99.90
20041;DHT22;10181;48.072;9.884;2022-11-06T06:58:26;0.20;99.90
20041;DHT22;10181;48.072;9.884;2022-11-06T07:00:52;0.20;99.90
20041;DHT22;10181;48.072;9.884;2022-11-06T07:03:18;0.30;99.90
20041;DHT22;10181;48.072;9.884;2022-11-06T07:05:43;0.30;99.90
20041;DHT22;10181;48.072;9.884;2022-11-06T07:08:09;0.30;99.90
20041;DHT22;10181;48.072;9.884;2022-11-06T07:10:35;0.30;99.90
20041;DHT22;10181;48.072;9.884;2022-11-06T07:13:04;0.30;99.90
20041;DHT22;10181;48.072;9.884;2022-11-06T07:15:30;0.30;99.90
20041;DHT22;10181;48.072;9.884;2022-11-06T07:18:03;0.30;99.90
20041;DHT22;10181;48.072;9.884;2022-11-06T07:20:30;0.40;99.90
20041;DHT22;10181;48.072;9.884;2022-11-06T07:22:56;0.50;99.90
20041;DHT22;10181;48.072;9.884;2022-11-06T07:25:23;0.60;99.90
20041;DHT22;10181;48.072;9.884;2022-11-06T07:27:49;0.70;99.90
20041;DHT22;10181;48.072;9.884;2022-11-06T07:30:14;0.80;99.90
20041;DHT22;10181;48.072;9.884;2022-11-06T07:32:40;0.80;99.90
20041;DHT22;10181;48.072;9.884;2022-11-06T07:35:06;0.90;99.90
20041;DHT22;10181;48.072;9.884;2022-11-06T07:37:32;1.00;99.90
20041;DHT22;10181;48.072;9.884;2022-11-06T07:39:57;1.00;99.90
20041;DHT22;10181;48.072;9.884;2022-11-06T07:42:23;1.00;99.90
20041;DHT22;10181;48.072;9.884;2022-11-06T07:44:49;1.00;99.90
20041;DHT22;10181;48.072;9.884;2022-11-06T07:47:18;1.00;99.90
20041;DHT22;10181;48.072;9.884;2022-11-06T07:49:44;0.90;99.90
20041;DHT22;10181;48.072;9.884;2022-11-06T07:52:09;0.90;99.90
20041;DHT22;10181;48.072;9.884;2022-11-06T07:54:35;0.80;99.90
20041;DHT22;10181;48.072;9.884;2022-11-06T07:57:00;0.80;99.90
20041;DHT22;10181;48.072;9.884;2022-11-06T07:59:26;0.80;99.90
20041;DHT22;10181;48.072;9.884;2022-11-06T08:01:52;0.80;99.90
20041;DHT22;10181;48.072;9.884;2022-11-06T08:04:17;0.80;99.90
20041;DHT22;10181;48.072;9.884;2022-11-06T08:06:43;0.80;99.90
20041;DHT22;10181;48.072;9.884;2022-11-06T08:09:09;0.80;99.90
20041;DHT22;10181;48.072;9.884;2022-11-06T08:11:34;0.90;99.90
20041;DHT22;10181;48.072;9.884;2022-11-06T08:14:01;1.00;99.90
20041;DHT22;10181;48.072;9.884;2022-11-06T08:16:27;1.10;99.90
20041;DHT22;10181;48.072;9.884;2022-11-06T08:18:53;1.20;99.90
20041;DHT22;10181;48.072;9.884;2022-11-06T08:21:18;1.40;99.90
20041;DHT22;10181;48.072;9.884;2022-11-06T08:23:44;1.50;99.90
20041;DHT22;10181;48.072;9.884;2022-11-06T08:26:10;1.60;99.90
20041;DHT22;10181;48.072;9.884;2022-11-06T08:28:36;1.70;99.90
20041;DHT22;10181;48.072;9.884;2022-11-06T08:31:07;1.80;99.90
20041;DHT22;10181;48.072;9.884;2022-11-06T08:33:33;1.80;99.90
20041;DHT22;10181;48.072;9.884;2022-11-06T08:36:03;1.90;99.90
20041;DHT22;10181;48.072;9.884;2022-11-06T08:38:29;2.00;99.90
20041;DHT22;10181;48.072;9.884;2022-11-06T08:40:55;2.20;99.90
20041;DHT22;10181;48.072;9.884;2022-11-06T08:43:21;2.30;99.90
20041;DHT22;10181;48.072;9.884;2022-11-06T08:45:51;2.50;99.90
20041;DHT22;10181;48.072;9.884;2022-11-06T08:48:16;2.60;99.90
20041;DHT22;10181;48.072;9.884;2022-11-06T08:50:42;2.80;99.90
20041;DHT22;10181;48.072;9.884;2022-11-06T08:53:08;2.90;99.90
20041;DHT22;10181;48.072;9.884;2022-11-06T08:55:36;3.10;99.90
20041;DHT22;10181;48.072;9.884;2022-11-06T08:58:02;3.20;99.90
20041;DHT22;10181;48.072;9.884;2022-11-06T09:00:29;3.40;99.90
20041;DHT22;10181;48.072;9.884;2022-11-06T09:03:04;3.50;99.90
20041;DHT22;10181;48.072;9.884;2022-11-06T09:05:30;3.60;99.90
20041;DHT22;10181;48.072;9.884;2022-11-06T09:07:59;3.80;99.90
20041;DHT22;10181;48.072;9.884;2022-11-06T09:10:25;3.90;99.90
20041;DHT22;10181;48.072;9.884;2022-11-06T09:12:51;4.00;99.90
20041;DHT22;10181;48.072;9.884;2022-11-06T09:15:17;4.20;99.90
20041;DHT22;10181;48.072;9.884;2022-11-06T09:17:49;4.30;99.90
20041;DHT22;10181;48.072;9.884;2022-11-06T09:20:16;4.40;99.90
20041;DHT22;10181;48.072;9.884;2022-11-06T09:22:43;4.50;99.90
20041;DHT22;10181;48.072;9.884;2022-11-06T09:25:09;4.60;99.90
20041;DHT22;10181;48.072;9.884;2022-11-06T09:27:42;4.70;99.90
20041;DHT22;10181;48.072;9.884;2022-11-06T09:30:10;4.80;99.90
20041;DHT22;10181;48.072;9.884;2022-11-06T09:32:36;4.90;99.90
20041;DHT22;10181;48.072;9.884;2022-11-06T09:35:02;4.90;99.90
20041;DHT22;10181;48.072;9.884;2022-11-06T09:37:28;5.00;99.90
20041;DHT22;10181;48.072;9.884;2022-11-06T09:39:53;5.10;99.90
20041;DHT22;10181;48.072;9.884;2022-11-06T09:42:44;5.20;99.90
20041;DHT22;10181;48.072;9.884;2022-11-06T09:45:14;5.20;99.90
20041;DHT22;10181;48.072;9.884;2022-11-06T09:47:45;5.30;99.90
20041;DHT22;10181;48.072;9.884;2022-11-06T09:50:18;5.30;99.90
20041;DHT22;10181;48.072;9.884;2022-11-06T09:52:51;5.40;99.90
20041;DHT22;10181;48.072;9.884;2022-11-06T09:55:28;5.40;99.90
20041;DHT22;10181;48.072;9.884;2022-11-06T09:58:17;5.50;99.90
20041;DHT22;10181;48.072;9.884;2022-11-06T10:00:44;5.50;99.90
20041;DHT22;10181;48.072;9.884;2022-11-06T10:03:28;5.60;99.90
20041;DHT22;10181;48.072;9.884;2022-11-06T10:05:55;5.60;99.90
20041;DHT22;10181;48.072;9.884;2022-11-06T10:08:23;5.70;99.90
20041;DHT22;10181;48.072;9.884;2022-11-06T10:13:58;5.80;99.90
20041;DHT22;10181;48.072;9.884;2022-11-06T10:19:48;5.70;99.90
20041;DHT22;10181;48.072;9.884;2022-11-06T10:22:24;5.80;99.90
20041;DHT22;10181;48.072;9.884;2022-11-06T10:25:04;5.90;99.90
20041;DHT22;10181;48.072;9.884;2022-11-06T10:27:37;6.00;99.90
20041;DHT22;10181;48.072;9.884;2022-11-06T10:30:11;6.10;99.90
20041;DHT22;10181;48.072;9.884;2022-11-06T10:35:39;6.10;99.90
20041;DHT22;10181;48.072;9.884;2022-11-06T10:38:17;6.00;99.90
20041;DHT22;10181;48.072;9.884;2022-11-06T10:40:45;6.00;99.90
20041;DHT22;10181;48.072;9.884;2022-11-06T10:43:39;5.90;99.90
20041;DHT22;10181;48.072;9.884;2022-11-06T10:49:00;5.70;99.90
20041;DHT22;10181;48.072;9.884;2022-11-06T10:51:36;5.80;99.90
20041;DHT22;10181;48.072;9.884;2022-11-06T10:59:47;5.90;99.90
20041;DHT22;10181;48.072;9.884;2022-11-06T11:02:29;6.00;99.90
20041;DHT22;10181;48.072;9.884;2022-11-06T11:04:56;6.00;99.90
20041;DHT22;10181;48.072;9.884;2022-11-06T11:07:22;5.90;99.90
20041;DHT22;10181;48.072;9.884;2022-11-06T11:09:47;5.90;99.90
20041;DHT22;10181;48.072;9.884;2022-11-06T11:12:30;5.80;99.90
20041;DHT22;10181;48.072;9.884;2022-11-06T11:15:24;5.70;99.90
20041;DHT22;10181;48.072;9.884;2022-11-06T11:20:39;5.30;99.90
20041;DHT22;10181;48.072;9.884;2022-11-06T11:23:20;5.10;99.90
20041;DHT22;10181;48.072;9.884;2022-11-06T11:25:49;4.90;99.90
20041;DHT22;10181;48.072;9.884;2022-11-06T11:28:28;4.80;99.90
20041;DHT22;10181;48.072;9.884;2022-11-06T11:33:33;4.70;99.90
20041;DHT22;10181;48.072;9.884;2022-11-06T11:35:59;4.60;99.90
20041;DHT22;10181;48.072;9.884;2022-11-06T11:38:24;4.70;99.90
20041;DHT22;10181;48.072;9.884;2022-11-06T11:40:51;4.80;99.90
20041;DHT22;10181;48.072;9.884;2022-11-06T11:43:29;4.90;99.90
20041;DHT22;10181;48.072;9.884;2022-11-06T11:49:00;5.20;99.90
20041;DHT22;10181;48.072;9.884;2022-11-06T11:51:40;5.40;99.90
20041;DHT22;10181;48.072;9.884;2022-11-06T11:56:47;5.60;99.90
20041;DHT22;10181;48.072;9.884;2022-11-06T11:59:27;5.60;99.90
20041;DHT22;10181;48.072;9.884;2022-11-06T12:01:58;5.80;99.90
20041;DHT22;10181;48.072;9.884;2022-11-06T12:04:30;5.90;99.90
20041;DHT22;10181;48.072;9.884;2022-11-06T12:06:57;6.00;99.90
20041;DHT22;10181;48.072;9.884;2022-11-06T12:09:25;6.20;99.90
20041;DHT22;10181;48.072;9.884;2022-11-06T12:11:54;6.50;99.90
20041;DHT22;10181;48.072;9.884;2022-11-06T12:16:49;7.10;99.90
20041;DHT22;10181;48.072;9.884;2022-11-06T12:19:17;7.30;99.90
20041;DHT22;10181;48.072;9.884;2022-11-06T12:21:45;7.40;99.90
20041;DHT22;10181;48.072;9.884;2022-11-06T12:24:22;7.50;99.90
20041;DHT22;10181;48.072;9.884;2022-11-06T12:27:14;7.50;99.90
20041;DHT22;10181;48.072;9.884;2022-11-06T12:29:45;7.50;99.90
20041;DHT22;10181;48.072;9.884;2022-11-06T12:40:31;7.70;99.90
20041;DHT22;10181;48.072;9.884;2022-11-06T12:59:30;7.70;99.90
20041;DHT22;10181;48.072;9.884;2022-11-06T13:10:46;7.30;99.90
20041;DHT22;10181;48.072;9.884;2022-11-06T13:13:47;7.20;99.90
20041;DHT22;10181;48.072;9.884;2022-11-06T13:19:14;6.90;99.90
20041;DHT22;10181;48.072;9.884;2022-11-06T13:24:34;6.70;99.90
20041;DHT22;10181;48.072;9.884;2022-11-06T13:27:40;6.70;99.90
20041;DHT22;10181;48.072;9.884;2022-11-06T13:30:16;6.70;99.90
20041;DHT22;10181;48.072;9.884;2022-11-06T13:35:31;6.50;99.90
20041;DHT22;10181;48.072;9.884;2022-11-06T13:37:59;6.50;99.90
20041;DHT22;10181;48.072;9.884;2022-11-06T13:40:35;6.40;99.90
20041;DHT22;10181;48.072;9.884;2022-11-06T13:52:00;6.30;99.90
20041;DHT22;10181;48.072;9.884;2022-11-06T13:54:36;6.30;99.90
20041;DHT22;10181;48.072;9.884;2022-11-06T14:00:14;6.30;99.90
20041;DHT22;10181;48.072;9.884;2022-11-06T14:08:17;6.20;99.90
20041;DHT22;10181;48.072;9.884;2022-11-06T14:10:51;6.20;99.90
20041;DHT22;10181;48.072;9.884;2022-11-06T14:13:23;6.10;99.90
20041;DHT22;10181;48.072;9.884;2022-11-06T14:16:40;6.10;99.90
20041;DHT22;10181;48.072;9.884;2022-11-06T14:19:25;6.10;99.90
20041;DHT22;10181;48.072;9.884;2022-11-06T14:21:53;6.10;99.90
20041;DHT22;10181;48.072;9.884;2022-11-06T14:24:33;6.10;99.90
20041;DHT22;10181;48.072;9.884;2022-11-06T14:29:56;6.10;99.90
20041;DHT22;10181;48.072;9.884;2022-11-06T14:32:44;6.10;99.90
20041;DHT22;10181;48.072;9.884;2022-11-06T14:40:44;6.20;99.90
20041;DHT22;10181;48.072;9.884;2022-11-06T14:45:49;6.10;99.90
20041;DHT22;10181;48.072;9.884;2022-11-06T14:48:41;6.10;99.90
20041;DHT22;10181;48.072;9.884;2022-11-06T14:51:10;6.20;99.90
20041;DHT22;10181;48.072;9.884;2022-11-06T14:53:48;6.20;99.90
20041;DHT22;10181;48.072;9.884;2022-11-06T14:56:24;6.20;99.90
20041;DHT22;10181;48.072;9.884;2022-11-06T14:58:56;6.30;99.90
20041;DHT22;10181;48.072;9.884;2022-11-06T15:01:28;6.30;99.90
20041;DHT22;10181;48.072;9.884;2022-11-06T15:03:57;6.20;99.90
20041;DHT22;10181;48.072;9.884;2022-11-06T15:09:01;6.10;99.90
20041;DHT22;10181;48.072;9.884;2022-11-06T15:16:40;6.10;99.90
20041;DHT22;10181;48.072;9.884;2022-11-06T15:19:41;6.10;99.90
20041;DHT22;10181;48.072;9.884;2022-11-06T15:22:23;6.10;99.90
20041;DHT22;10181;48.072;9.884;2022-11-06T15:25:20;6.10;99.90
20041;DHT22;10181;48.072;9.884;2022-11-06T15:30:32;6.00;99.90
20041;DHT22;10181;48.072;9.884;2022-11-06T15:33:04;6.00;99.90
20041;DHT22;10181;48.072;9.884;2022-11-06T15:35:33;6.00;99.90
20041;DHT22;10181;48.072;9.884;2022-11-06T15:38:14;6.00;99.90
20041;DHT22;10181;48.072;9.884;2022-11-06T15:40:42;6.00;99.90
20041;DHT22;10181;48.072;9.884;2022-11-06T15:43:30;5.90;99.90
20041;DHT22;10181;48.072;9.884;2022-11-06T15:48:32;5.90;99.90
20041;DHT22;10181;48.072;9.884;2022-11-06T15:50:58;5.80;99.90
20041;DHT22;10181;48.072;9.884;2022-11-06T15:53:26;5.80;99.90
20041;DHT22;10181;48.072;9.884;2022-11-06T15:56:03;5.80;99.90
20041;DHT22;10181;48.072;9.884;2022-11-06T15:58:32;5.80;99.90
20041;DHT22;10181;48.072;9.884;2022-11-06T16:01:00;5.80;99.90
20041;DHT22;10181;48.072;9.884;2022-11-06T16:03:49;5.80;99.90
20041;DHT22;10181;48.072;9.884;2022-11-06T16:06:16;5.80;99.90
20041;DHT22;10181;48.072;9.884;2022-11-06T16:08:42;5.80;99.90
20041;DHT22;10181;48.072;9.884;2022-11-06T16:11:13;5.80;99.90
20041;DHT22;10181;48.072;9.884;2022-11-06T16:13:40;5.80;99.90
20041;DHT22;10181;48.072;9.884;2022-11-06T16:18:52;5.70;99.90
20041;DHT22;10181;48.072;9.884;2022-11-06T16:21:20;5.60;99.90
20041;DHT22;10181;48.072;9.884;2022-11-06T16:24:09;5.60;99.90
20041;DHT22;10181;48.072;9.884;2022-11-06T16:26:38;5.60;99.90
20041;DHT22;10181;48.072;9.884;2022-11-06T16:29:10;5.60;99.90
20041;DHT22;10181;48.072;9.884;2022-11-06T16:31:39;5.60;99.90
20041;DHT22;10181;48.072;9.884;2022-11-06T16:34:17;5.60;99.90
20041;DHT22;10181;48.072;9.884;2022-11-06T16:37:11;5.50;99.90
20041;DHT22;10181;48.072;9.884;2022-11-06T16:39:52;5.50;99.90
20041;DHT22;10181;48.072;9.884;2022-11-06T16:44:48;5.40;99.90
20041;DHT22;10181;48.072;9.884;2022-11-06T16:47:20;5.40;99.90
20041;DHT22;10181;48.072;9.884;2022-11-06T16:49:54;5.30;99.90
20041;DHT22;10181;48.072;9.884;2022-11-06T16:55:05;5.30;99.90
20041;DHT22;10181;48.072;9.884;2022-11-06T16:57:54;5.30;99.90
20041;DHT22;10181;48.072;9.884;2022-11-06T17:00:22;5.30;99.90
20041;DHT22;10181;48.072;9.884;2022-11-06T17:02:54;5.20;99.90
20041;DHT22;10181;48.072;9.884;2022-11-06T17:05:29;5.20;99.90
20041;DHT22;10181;48.072;9.884;2022-11-06T17:10:59;5.20;99.90
20041;DHT22;10181;48.072;9.884;2022-11-06T17:13:43;5.10;99.90
20041;DHT22;10181;48.072;9.884;2022-11-06T17:16:15;5.10;99.90
20041;DHT22;10181;48.072;9.884;2022-11-06T17:18:42;5.10;99.90
20041;DHT22;10181;48.072;9.884;2022-11-06T17:21:14;5.20;99.90
20041;DHT22;10181;48.072;9.884;2022-11-06T17:23:40;5.20;99.90
20041;DHT22;10181;48.072;9.884;2022-11-06T17:26:22;5.30;99.90
20041;DHT22;10181;48.072;9.884;2022-11-06T17:28:50;5.40;99.90
20041;DHT22;10181;48.072;9.884;2022-11-06T17:31:18;5.60;99.90
20041;DHT22;10181;48.072;9.884;2022-11-06T17:33:44;5.80;99.90
20041;DHT22;10181;48.072;9.884;2022-11-06T17:36:22;5.90;99.90
20041;DHT22;10181;48.072;9.884;2022-11-06T17:38:49;6.00;99.90
20041;DHT22;10181;48.072;9.884;2022-11-06T17:41:15;6.10;99.90
20041;DHT22;10181;48.072;9.884;2022-11-06T17:43:58;6.10;99.90
20041;DHT22;10181;48.072;9.884;2022-11-06T17:46:26;6.20;99.90
20041;DHT22;10181;48.072;9.884;2022-11-06T17:48:52;6.20;99.90
20041;DHT22;10181;48.072;9.884;2022-11-06T17:51:18;6.20;99.90
20041;DHT22;10181;48.072;9.884;2022-11-06T17:54:02;6.30;99.90
20041;DHT22;10181;48.072;9.884;2022-11-06T17:56:28;6.20;99.90
20041;DHT22;10181;48.072;9.884;2022-11-06T17:58:53;6.30;99.90
20041;DHT22;10181;48.072;9.884;2022-11-06T18:01:19;6.30;99.90
20041;DHT22;10181;48.072;9.884;2022-11-06T18:03:44;6.40;99.90
20041;DHT22;10181;48.072;9.884;2022-11-06T18:06:12;6.40;99.90
20041;DHT22;10181;48.072;9.884;2022-11-06T18:08:37;6.40;99.90
20041;DHT22;10181;48.072;9.884;2022-11-06T18:11:04;6.50;99.90
20041;DHT22;10181;48.072;9.884;2022-11-06T18:13:31;6.60;99.90
20041;DHT22;10181;48.072;9.884;2022-11-06T18:15:56;6.60;99.90
20041;DHT22;10181;48.072;9.884;2022-11-06T18:18:22;6.60;99.90
20041;DHT22;10181;48.072;9.884;2022-11-06T18:20:48;6.70;99.90
20041;DHT22;10181;48.072;9.884;2022-11-06T18:23:14;6.70;99.90
20041;DHT22;10181;48.072;9.884;2022-11-06T18:25:41;6.70;99.90
20041;DHT22;10181;48.072;9.884;2022-11-06T18:28:06;6.70;99.90
20041;DHT22;10181;48.072;9.884;2022-11-06T18:30:32;6.70;99.90
20041;DHT22;10181;48.072;9.884;2022-11-06T18:32:58;6.80;99.90
20041;DHT22;10181;48.072;9.884;2022-11-06T18:35:24;6.80;99.90
20041;DHT22;10181;48.072;9.884;2022-11-06T18:37:49;6.80;99.90
20041;DHT22;10181;48.072;9.884;2022-11-06T18:40:15;6.80;99.90
20041;DHT22;10181;48.072;9.884;2022-11-06T18:42:41;6.80;99.90
20041;DHT22;10181;48.072;9.884;2022-11-06T18:45:07;6.80;99.90
20041;DHT22;10181;48.072;9.884;2022-11-06T18:47:32;6.80;99.90
20041;DHT22;10181;48.072;9.884;2022-11-06T18:49:58;6.90;99.90